Custom Search

Airport METAR Reports

 

YMAV - Avalon Airport, Australia
Distance from station: 0 0km
Updated: 21/01/2017 00:30
Overcast
Overcast
 Wind from SW
Wind: SW 20 km/h
Temperature: 16°C
Dew Point: 9°C
Humidity: 63%
Barometer: 1010 hPa
Clouds: Overcast
Visibility: 10 km
Cloud details: Overcast 1067 m
2017/01/20 13:30 YMAV 201330Z AUTO 22011KT 9999 // OVC035 16/09 Q1010 RF00.0/000.0
YMML - Melbourne Intl A, Australia
Distance from station: NE 50km
Updated: 21/01/2017 00:30
Mostly cloudy
Mostly cloudy
 Wind from SSW
Wind: SSW 19 km/h
Temperature: 15°C
Dew Point: 7°C
Humidity: 59%
Barometer: 1010 hPa
Clouds: Mostly cloudy
Visibility: 10 km
Cloud details: Mostly cloudy 1036 m
2017/01/20 13:30 YMML 201330Z 20010KT 9999 BKN034 15/07 Q1010 NOSIG
YMEN - Melbourne/Essend, Australia
Distance from station: NE 51km
Updated: 21/01/2017 00:00
Overcast
Overcast
 Wind from SSW
Wind: SSW 22 km/h
Temperature: 15°C
Dew Point: 9°C
Humidity: 68%
Barometer: 1009 hPa
Clouds: Overcast
Visibility: 10 km
Cloud details: Partly cloudy 853 m
Overcast 1097 m
2017/01/20 13:00 YMEN 201300Z AUTO 21012KT 9999 // SCT028 OVC036 15/09 Q1009
 
YWGT - Wangaratta Arp, Australia
Distance from station: NE 241km
Updated: 21/01/2017 00:00
Clear
Clear
 Wind from WSW
Wind: WSW 17 km/h
Temperature: 16°C
Dew Point: 9°C
Humidity: 63%
Barometer: 1006 hPa
Clouds: Clear
Visibility: 10 km
2017/01/20 13:00 YWGT 201300Z AUTO 24009KT 9999 // NCD 16/09 Q1006
YMAY - Albury Airport, Australia
Distance from station: NE 308km
Updated: 21/01/2017 00:00
Clear
Clear
 Wind from SW
Wind: SW 7 km/h
Temperature: 17°C
Dew Point: 9°C
Humidity: 59%
Barometer: 1005 hPa
Clouds: Clear
Visibility: 10 km
2017/01/20 13:00 YMAY 201300Z AUTO 22004KT 200V260 9999 // NCD 17/09 Q1005
YMTG - Mount Gambier, Australia
Distance from station: W 326km
Updated: 21/01/2017 00:00
Overcast
Overcast
 Wind from WNW
Wind: WNW 7 km/h
Temperature: 12°C
Dew Point: 10°C
Humidity: 88%
Barometer: 1012 hPa
Clouds: Overcast
Visibility: 10 km
Cloud details: Partly cloudy 853 m
Overcast 1036 m
2017/01/20 13:00 YMTG 201300Z AUTO 30004KT 9999 // SCT028 OVC034 12/10 Q1012
 
YNAR - Narrandera, Australia
Distance from station: NNE 413km
Updated: 21/01/2017 00:00

 Wind from SW
Wind: SW 22 km/h
Temperature: 18°C
Dew Point: 9°C
Humidity: 56%
Barometer: 1006 hPa
2017/01/20 13:00 YNAR 201300Z AUTO 22012KT //// // ////// 18/09 Q1006
YSWG - Wagga Wagga(Cv/M, Australia
Distance from station: NE 418km
Updated: 21/01/2017 00:00
Clear
Clear
 Wind from W
Wind: W 17 km/h
Temperature: 17°C
Dew Point: 10°C
Humidity: 64%
Barometer: 1005 hPa
Clouds: Clear
Visibility: 10 km
2017/01/20 13:00 YSWG 201300Z AUTO 26009KT 9999 // NCD 17/10 Q1005
YCOM - Cooma Snowy Mtns, Australia
Distance from station: ENE 441km
Updated: 21/01/2017 00:00
Clear
Clear
 Wind from SW
Wind: SW 30 km/h
Temperature: 11°C
Dew Point: 5°C
Humidity: 67%
Barometer: 1006 hPa
Clouds: Clear
Visibility: 10 km
2017/01/20 13:00 YCOM 201300Z AUTO 23016KT 9999 // NCD 11/05 Q1006
 
YGTH - Griffith Arpt, Australia
Distance from station: NNE 444km
Updated: 21/01/2017 00:00
Clear
Clear
 Wind from SSW
Wind: SSW 17 km/h
Temperature: 18°C
Dew Point: 11°C
Humidity: 64%
Barometer: 1006 hPa
Clouds: Clear
Visibility: 10 km
2017/01/20 13:00 YGTH 201300Z AUTO 21009KT 9999 // NCD 18/11 Q1006
YMLT - Launceston Airpo, Australia
Distance from station: SSE 451km
Updated: 21/01/2017 00:30
Clear
Clear
 Wind from SSW
Wind: SSW 11 km/h
Temperature: 10°C
Wind Chill: 8°C
Dew Point: 9°C
Humidity: 94%
Barometer: 1005 hPa
Clouds: Clear
Visibility: 10 km
2017/01/20 13:30 YMLT 201330Z AUTO 20006KT 9999 // NCD 10/09 Q1005 RF00.0/009.4
YMIA - Mildura Arpt, Australia
Distance from station: NNW 474km
Updated: 21/01/2017 00:00
Clear
Clear
 Wind from S
Wind: S 9 km/h
Temperature: 19°C
Dew Point: 12°C
Humidity: 64%
Barometer: 1009 hPa
Clouds: Clear
Visibility: 10 km
2017/01/20 13:00 YMIA 201300Z AUTO 18005KT 9999 // NCD 19/12 Q1009
 
YMER - Merimbula Arpt, Australia
Distance from station: ENE 494km
Updated: 21/01/2017 00:00

 Wind from SW
Wind: SW 13 km/h
Temperature: 18°C
Dew Point: 11°C
Humidity: 64%
Barometer: 1004 hPa
2017/01/20 13:00 YMER 201300Z AUTO 23007KT //// // ////// 18/11 Q1004
YSCB - Canberra (civ/Mi, Australia
Distance from station: NE 518km
Updated: 21/01/2017 00:30
Clear
Clear
 Wind from SSE
Wind: SSE 30 km/h
Temperature: 16°C
Dew Point: 7°C
Humidity: 55%
Barometer: 1005 hPa
Clouds: Clear
Visibility: 10 km
2017/01/20 13:30 YSCB 201330Z AUTO 16016KT 9999 // NCD 16/07 Q1005
YMHB - Hobart/Tasmania, Australia
Distance from station: SSE 590km
Updated: 21/01/2017 00:30
Partly cloudy
Partly cloudy
 Wind from W
Wind: W 17 km/h
Temperature: 13°C
Dew Point: 5°C
Humidity: 59%
Barometer: 1005 hPa
Clouds: Partly cloudy
Visibility: 10 km
Cloud details: Few Clouds 914 m
Partly cloudy 1524 m
2017/01/20 13:30 YMHB 201330Z 26009KT 9999 FEW030 SCT050 13/05 Q1005 RF00.0/014.2